sensor_id;sensor_type;location;lat;lon;timestamp;temperature;humidity
19256;DHT22;9762;52.490;13.410;2022-10-31T00:00:17;17.60;99.90
19256;DHT22;9762;52.490;13.410;2022-10-31T00:02:43;17.60;99.90
19256;DHT22;9762;52.490;13.410;2022-10-31T00:05:09;17.50;99.90
19256;DHT22;9762;52.490;13.410;2022-10-31T00:07:34;17.50;99.90
19256;DHT22;9762;52.490;13.410;2022-10-31T00:10:00;17.50;99.90
19256;DHT22;9762;52.490;13.410;2022-10-31T00:12:26;17.50;99.90
19256;DHT22;9762;52.490;13.410;2022-10-31T00:14:52;17.50;99.90
19256;DHT22;9762;52.490;13.410;2022-10-31T00:17:17;17.50;99.90
19256;DHT22;9762;52.490;13.410;2022-10-31T00:19:43;17.50;99.90
19256;DHT22;9762;52.490;13.410;2022-10-31T00:22:09;17.40;99.90
19256;DHT22;9762;52.490;13.410;2022-10-31T00:24:35;17.40;99.90
19256;DHT22;9762;52.490;13.410;2022-10-31T00:27:00;17.40;99.90
19256;DHT22;9762;52.490;13.410;2022-10-31T00:29:26;17.40;99.90
19256;DHT22;9762;52.490;13.410;2022-10-31T00:31:52;17.40;99.90
19256;DHT22;9762;52.490;13.410;2022-10-31T00:34:17;17.30;99.90
19256;DHT22;9762;52.490;13.410;2022-10-31T00:36:43;17.30;99.90
19256;DHT22;9762;52.490;13.410;2022-10-31T00:39:08;17.30;99.90
19256;DHT22;9762;52.490;13.410;2022-10-31T00:41:34;17.30;99.90
19256;DHT22;9762;52.490;13.410;2022-10-31T00:43:59;17.30;99.90
19256;DHT22;9762;52.490;13.410;2022-10-31T00:46:25;17.20;99.90
19256;DHT22;9762;52.490;13.410;2022-10-31T00:48:50;17.20;99.90
19256;DHT22;9762;52.490;13.410;2022-10-31T00:51:16;17.20;99.90
19256;DHT22;9762;52.490;13.410;2022-10-31T00:53:42;17.20;99.90
19256;DHT22;9762;52.490;13.410;2022-10-31T00:56:07;17.20;99.90
19256;DHT22;9762;52.490;13.410;2022-10-31T00:58:33;17.10;99.90
19256;DHT22;9762;52.490;13.410;2022-10-31T01:00:58;17.10;99.90
19256;DHT22;9762;52.490;13.410;2022-10-31T01:03:26;17.10;99.90
19256;DHT22;9762;52.490;13.410;2022-10-31T01:08:21;17.00;99.90
19256;DHT22;9762;52.490;13.410;2022-10-31T01:10:58;17.00;99.90
19256;DHT22;9762;52.490;13.410;2022-10-31T01:13:24;17.00;99.90
19256;DHT22;9762;52.490;13.410;2022-10-31T01:15:54;17.00;99.90
19256;DHT22;9762;52.490;13.410;2022-10-31T01:18:20;16.90;99.90
19256;DHT22;9762;52.490;13.410;2022-10-31T01:20:45;16.90;99.90
19256;DHT22;9762;52.490;13.410;2022-10-31T01:23:11;16.80;99.90
19256;DHT22;9762;52.490;13.410;2022-10-31T01:25:36;16.80;99.90
19256;DHT22;9762;52.490;13.410;2022-10-31T01:28:02;16.80;99.90
19256;DHT22;9762;52.490;13.410;2022-10-31T01:30:28;16.80;99.90
19256;DHT22;9762;52.490;13.410;2022-10-31T01:32:53;16.70;99.90
19256;DHT22;9762;52.490;13.410;2022-10-31T01:35:19;16.70;99.90
19256;DHT22;9762;52.490;13.410;2022-10-31T01:37:44;16.70;99.90
19256;DHT22;9762;52.490;13.410;2022-10-31T01:40:10;16.70;99.90
19256;DHT22;9762;52.490;13.410;2022-10-31T01:42:35;16.70;99.90
19256;DHT22;9762;52.490;13.410;2022-10-31T01:45:01;16.70;99.90
19256;DHT22;9762;52.490;13.410;2022-10-31T01:47:40;16.70;99.90
19256;DHT22;9762;52.490;13.410;2022-10-31T01:50:12;16.60;99.90
19256;DHT22;9762;52.490;13.410;2022-10-31T01:52:47;16.60;99.90
19256;DHT22;9762;52.490;13.410;2022-10-31T01:55:32;16.60;99.90
19256;DHT22;9762;52.490;13.410;2022-10-31T01:58:08;16.60;99.90
19256;DHT22;9762;52.490;13.410;2022-10-31T02:00:34;16.60;99.90
19256;DHT22;9762;52.490;13.410;2022-10-31T02:03:00;16.60;99.90
19256;DHT22;9762;52.490;13.410;2022-10-31T02:05:27;16.60;99.90
19256;DHT22;9762;52.490;13.410;2022-10-31T02:08:07;16.50;99.90
19256;DHT22;9762;52.490;13.410;2022-10-31T02:10:37;16.50;99.90
19256;DHT22;9762;52.490;13.410;2022-10-31T02:13:04;16.50;99.90
19256;DHT22;9762;52.490;13.410;2022-10-31T02:15:32;16.40;99.90
19256;DHT22;9762;52.490;13.410;2022-10-31T02:17:58;16.40;99.90
19256;DHT22;9762;52.490;13.410;2022-10-31T02:20:27;16.40;99.90
19256;DHT22;9762;52.490;13.410;2022-10-31T02:26:12;16.40;99.90
19256;DHT22;9762;52.490;13.410;2022-10-31T02:34:12;16.50;99.90
19256;DHT22;9762;52.490;13.410;2022-10-31T02:42:09;16.50;99.90
19256;DHT22;9762;52.490;13.410;2022-10-31T02:47:12;16.50;99.90
19256;DHT22;9762;52.490;13.410;2022-10-31T02:50:02;16.50;99.90
19256;DHT22;9762;52.490;13.410;2022-10-31T02:52:31;16.50;99.90
19256;DHT22;9762;52.490;13.410;2022-10-31T02:54:57;16.40;99.90
19256;DHT22;9762;52.490;13.410;2022-10-31T02:57:30;16.40;99.90
19256;DHT22;9762;52.490;13.410;2022-10-31T03:00:06;16.40;99.90
19256;DHT22;9762;52.490;13.410;2022-10-31T03:08:49;16.40;99.90
19256;DHT22;9762;52.490;13.410;2022-10-31T03:11:17;16.30;99.90
19256;DHT22;9762;52.490;13.410;2022-10-31T03:13:51;16.30;99.90
19256;DHT22;9762;52.490;13.410;2022-10-31T03:16:48;16.30;99.90
19256;DHT22;9762;52.490;13.410;2022-10-31T03:19:34;16.30;99.90
19256;DHT22;9762;52.490;13.410;2022-10-31T03:22:19;16.20;99.90
19256;DHT22;9762;52.490;13.410;2022-10-31T03:24:47;16.30;99.90
19256;DHT22;9762;52.490;13.410;2022-10-31T03:27:18;16.30;99.90
19256;DHT22;9762;52.490;13.410;2022-10-31T03:29:45;16.30;99.90
19256;DHT22;9762;52.490;13.410;2022-10-31T03:32:16;16.30;99.90
19256;DHT22;9762;52.490;13.410;2022-10-31T03:34:44;16.30;99.90
19256;DHT22;9762;52.490;13.410;2022-10-31T03:37:19;16.30;99.90
19256;DHT22;9762;52.490;13.410;2022-10-31T03:39:47;16.30;99.90
19256;DHT22;9762;52.490;13.410;2022-10-31T03:42:16;16.30;99.90
19256;DHT22;9762;52.490;13.410;2022-10-31T03:44:47;16.30;99.90
19256;DHT22;9762;52.490;13.410;2022-10-31T03:47:14;16.30;99.90
19256;DHT22;9762;52.490;13.410;2022-10-31T03:49:40;16.30;99.90
19256;DHT22;9762;52.490;13.410;2022-10-31T03:52:28;16.30;99.90
19256;DHT22;9762;52.490;13.410;2022-10-31T03:55:19;16.30;99.90
19256;DHT22;9762;52.490;13.410;2022-10-31T04:00:20;16.30;99.90
19256;DHT22;9762;52.490;13.410;2022-10-31T04:03:07;16.30;99.90
19256;DHT22;9762;52.490;13.410;2022-10-31T04:05:35;16.40;99.90
19256;DHT22;9762;52.490;13.410;2022-10-31T04:08:05;16.40;99.90
19256;DHT22;9762;52.490;13.410;2022-10-31T04:10:33;16.40;99.90
19256;DHT22;9762;52.490;13.410;2022-10-31T04:13:09;16.40;99.90
19256;DHT22;9762;52.490;13.410;2022-10-31T04:15:37;16.40;99.90
19256;DHT22;9762;52.490;13.410;2022-10-31T04:18:04;16.40;99.90
19256;DHT22;9762;52.490;13.410;2022-10-31T04:20:35;16.40;99.90
19256;DHT22;9762;52.490;13.410;2022-10-31T04:23:01;16.40;99.90
19256;DHT22;9762;52.490;13.410;2022-10-31T04:25:27;16.40;99.90
19256;DHT22;9762;52.490;13.410;2022-10-31T04:27:53;16.40;99.90
19256;DHT22;9762;52.490;13.410;2022-10-31T04:30:19;16.40;99.90
19256;DHT22;9762;52.490;13.410;2022-10-31T04:32:44;16.40;99.90
19256;DHT22;9762;52.490;13.410;2022-10-31T04:35:10;16.40;99.90
19256;DHT22;9762;52.490;13.410;2022-10-31T04:37:35;16.40;99.90
19256;DHT22;9762;52.490;13.410;2022-10-31T04:40:01;16.40;99.90
19256;DHT22;9762;52.490;13.410;2022-10-31T04:42:29;16.40;99.90
19256;DHT22;9762;52.490;13.410;2022-10-31T04:44:55;16.40;99.90
19256;DHT22;9762;52.490;13.410;2022-10-31T04:47:20;16.40;99.90
19256;DHT22;9762;52.490;13.410;2022-10-31T04:49:46;16.40;99.90
19256;DHT22;9762;52.490;13.410;2022-10-31T04:52:11;16.40;99.90
19256;DHT22;9762;52.490;13.410;2022-10-31T04:54:37;16.40;99.90
19256;DHT22;9762;52.490;13.410;2022-10-31T04:57:02;16.40;99.90
19256;DHT22;9762;52.490;13.410;2022-10-31T04:59:28;16.40;99.90
19256;DHT22;9762;52.490;13.410;2022-10-31T05:01:53;16.40;99.90
19256;DHT22;9762;52.490;13.410;2022-10-31T05:04:19;16.40;99.90
19256;DHT22;9762;52.490;13.410;2022-10-31T05:06:44;16.40;99.90
19256;DHT22;9762;52.490;13.410;2022-10-31T05:09:10;16.40;99.90
19256;DHT22;9762;52.490;13.410;2022-10-31T05:11:35;16.40;99.90
19256;DHT22;9762;52.490;13.410;2022-10-31T05:14:01;16.40;99.90
19256;DHT22;9762;52.490;13.410;2022-10-31T05:16:27;16.40;99.90
19256;DHT22;9762;52.490;13.410;2022-10-31T05:18:53;16.40;99.90
19256;DHT22;9762;52.490;13.410;2022-10-31T05:21:18;16.30;99.90
19256;DHT22;9762;52.490;13.410;2022-10-31T05:23:44;16.30;99.90
19256;DHT22;9762;52.490;13.410;2022-10-31T05:26:09;16.30;99.90
19256;DHT22;9762;52.490;13.410;2022-10-31T05:28:35;16.30;99.90
19256;DHT22;9762;52.490;13.410;2022-10-31T05:31:00;16.30;99.90
19256;DHT22;9762;52.490;13.410;2022-10-31T05:33:26;16.30;99.90
19256;DHT22;9762;52.490;13.410;2022-10-31T05:35:51;16.30;99.90
19256;DHT22;9762;52.490;13.410;2022-10-31T05:38:17;16.30;99.90
19256;DHT22;9762;52.490;13.410;2022-10-31T05:40:42;16.30;99.90
19256;DHT22;9762;52.490;13.410;2022-10-31T05:43:08;16.30;99.90
19256;DHT22;9762;52.490;13.410;2022-10-31T05:45:33;16.30;99.90
19256;DHT22;9762;52.490;13.410;2022-10-31T05:48:01;16.30;99.90
19256;DHT22;9762;52.490;13.410;2022-10-31T05:50:29;16.30;99.90
19256;DHT22;9762;52.490;13.410;2022-10-31T05:53:03;16.30;99.90
19256;DHT22;9762;52.490;13.410;2022-10-31T05:55:29;16.30;99.90
19256;DHT22;9762;52.490;13.410;2022-10-31T05:57:55;16.30;99.90
19256;DHT22;9762;52.490;13.410;2022-10-31T06:00:23;16.30;99.90
19256;DHT22;9762;52.490;13.410;2022-10-31T06:02:49;16.20;99.90
19256;DHT22;9762;52.490;13.410;2022-10-31T06:05:15;16.30;99.90
19256;DHT22;9762;52.490;13.410;2022-10-31T06:07:41;16.20;99.90
19256;DHT22;9762;52.490;13.410;2022-10-31T06:10:08;16.20;99.90
19256;DHT22;9762;52.490;13.410;2022-10-31T06:12:34;16.20;99.90
19256;DHT22;9762;52.490;13.410;2022-10-31T06:15:04;16.20;99.90
19256;DHT22;9762;52.490;13.410;2022-10-31T06:17:30;16.20;99.90
19256;DHT22;9762;52.490;13.410;2022-10-31T06:19:56;16.20;99.90
19256;DHT22;9762;52.490;13.410;2022-10-31T06:22:22;16.20;99.90
19256;DHT22;9762;52.490;13.410;2022-10-31T06:24:47;16.20;99.90
19256;DHT22;9762;52.490;13.410;2022-10-31T06:27:13;16.20;99.90
19256;DHT22;9762;52.490;13.410;2022-10-31T06:29:38;16.30;99.90
19256;DHT22;9762;52.490;13.410;2022-10-31T06:32:04;16.30;99.90
19256;DHT22;9762;52.490;13.410;2022-10-31T06:34:29;16.30;99.90
19256;DHT22;9762;52.490;13.410;2022-10-31T06:36:55;16.30;99.90
19256;DHT22;9762;52.490;13.410;2022-10-31T06:39:20;16.30;99.90
19256;DHT22;9762;52.490;13.410;2022-10-31T06:41:47;16.30;99.90
19256;DHT22;9762;52.490;13.410;2022-10-31T06:44:13;16.30;99.90
19256;DHT22;9762;52.490;13.410;2022-10-31T06:46:39;16.30;99.90
19256;DHT22;9762;52.490;13.410;2022-10-31T06:49:04;16.40;99.90
19256;DHT22;9762;52.490;13.410;2022-10-31T06:51:30;16.40;99.90
19256;DHT22;9762;52.490;13.410;2022-10-31T06:53:55;16.40;99.90
19256;DHT22;9762;52.490;13.410;2022-10-31T06:56:21;16.40;99.90
19256;DHT22;9762;52.490;13.410;2022-10-31T06:58:46;16.50;99.90
19256;DHT22;9762;52.490;13.410;2022-10-31T07:01:12;16.50;99.90
19256;DHT22;9762;52.490;13.410;2022-10-31T07:03:37;16.50;99.90
19256;DHT22;9762;52.490;13.410;2022-10-31T07:06:03;16.60;99.90
19256;DHT22;9762;52.490;13.410;2022-10-31T07:08:28;16.70;99.90
19256;DHT22;9762;52.490;13.410;2022-10-31T07:10:56;16.70;99.90
19256;DHT22;9762;52.490;13.410;2022-10-31T07:13:22;16.70;99.90
19256;DHT22;9762;52.490;13.410;2022-10-31T07:15:52;16.70;99.90
19256;DHT22;9762;52.490;13.410;2022-10-31T07:18:18;16.80;99.90
19256;DHT22;9762;52.490;13.410;2022-10-31T07:20:43;16.90;99.90
19256;DHT22;9762;52.490;13.410;2022-10-31T07:23:10;16.90;99.90
19256;DHT22;9762;52.490;13.410;2022-10-31T07:25:36;16.90;99.90
19256;DHT22;9762;52.490;13.410;2022-10-31T07:28:02;17.00;99.90
19256;DHT22;9762;52.490;13.410;2022-10-31T07:30:28;17.10;99.90
19256;DHT22;9762;52.490;13.410;2022-10-31T07:32:53;17.10;99.90
19256;DHT22;9762;52.490;13.410;2022-10-31T07:35:23;17.20;99.90
19256;DHT22;9762;52.490;13.410;2022-10-31T07:37:49;17.20;99.90
19256;DHT22;9762;52.490;13.410;2022-10-31T07:40:16;17.30;99.90
19256;DHT22;9762;52.490;13.410;2022-10-31T07:42:50;17.40;99.90
19256;DHT22;9762;52.490;13.410;2022-10-31T07:45:19;17.50;99.90
19256;DHT22;9762;52.490;13.410;2022-10-31T07:47:45;17.50;99.90
19256;DHT22;9762;52.490;13.410;2022-10-31T07:50:13;17.60;99.90
19256;DHT22;9762;52.490;13.410;2022-10-31T07:52:39;17.60;99.90
19256;DHT22;9762;52.490;13.410;2022-10-31T07:55:05;17.70;99.90
19256;DHT22;9762;52.490;13.410;2022-10-31T07:57:31;17.70;99.90
19256;DHT22;9762;52.490;13.410;2022-10-31T07:59:57;17.80;99.90
19256;DHT22;9762;52.490;13.410;2022-10-31T08:02:23;17.80;99.90
19256;DHT22;9762;52.490;13.410;2022-10-31T08:04:49;17.90;99.90
19256;DHT22;9762;52.490;13.410;2022-10-31T08:07:15;18.00;99.90
19256;DHT22;9762;52.490;13.410;2022-10-31T08:09:40;18.00;99.90
19256;DHT22;9762;52.490;13.410;2022-10-31T08:12:06;18.00;99.90
19256;DHT22;9762;52.490;13.410;2022-10-31T08:14:31;18.00;99.90
19256;DHT22;9762;52.490;13.410;2022-10-31T08:16:57;18.10;99.90
19256;DHT22;9762;52.490;13.410;2022-10-31T08:19:22;18.10;99.90
19256;DHT22;9762;52.490;13.410;2022-10-31T08:21:51;18.10;99.90
19256;DHT22;9762;52.490;13.410;2022-10-31T08:24:17;18.20;99.90
19256;DHT22;9762;52.490;13.410;2022-10-31T08:26:43;18.20;99.90
19256;DHT22;9762;52.490;13.410;2022-10-31T08:29:08;18.20;99.90
19256;DHT22;9762;52.490;13.410;2022-10-31T08:31:34;18.20;99.90
19256;DHT22;9762;52.490;13.410;2022-10-31T08:34:00;18.30;99.90
19256;DHT22;9762;52.490;13.410;2022-10-31T08:36:27;18.30;99.90
19256;DHT22;9762;52.490;13.410;2022-10-31T08:38:52;18.30;99.90
19256;DHT22;9762;52.490;13.410;2022-10-31T08:41:18;18.40;99.90
19256;DHT22;9762;52.490;13.410;2022-10-31T08:43:43;18.40;99.90
19256;DHT22;9762;52.490;13.410;2022-10-31T08:46:09;18.40;99.90
19256;DHT22;9762;52.490;13.410;2022-10-31T08:48:34;18.40;99.90
19256;DHT22;9762;52.490;13.410;2022-10-31T08:51:00;18.40;99.90
19256;DHT22;9762;52.490;13.410;2022-10-31T08:53:26;18.50;99.90
19256;DHT22;9762;52.490;13.410;2022-10-31T08:55:54;18.40;99.90
19256;DHT22;9762;52.490;13.410;2022-10-31T08:58:20;18.50;99.90
19256;DHT22;9762;52.490;13.410;2022-10-31T09:00:48;18.50;99.90
19256;DHT22;9762;52.490;13.410;2022-10-31T09:03:18;18.50;99.90
19256;DHT22;9762;52.490;13.410;2022-10-31T09:05:44;18.50;99.90
19256;DHT22;9762;52.490;13.410;2022-10-31T09:08:11;18.60;99.90
19256;DHT22;9762;52.490;13.410;2022-10-31T09:10:37;18.60;99.90
19256;DHT22;9762;52.490;13.410;2022-10-31T09:13:06;18.60;99.90
19256;DHT22;9762;52.490;13.410;2022-10-31T09:15:38;18.60;99.90
19256;DHT22;9762;52.490;13.410;2022-10-31T09:18:04;18.60;99.90
19256;DHT22;9762;52.490;13.410;2022-10-31T09:20:32;18.70;99.90
19256;DHT22;9762;52.490;13.410;2022-10-31T09:22:59;18.70;99.90
19256;DHT22;9762;52.490;13.410;2022-10-31T09:25:25;18.70;99.90
19256;DHT22;9762;52.490;13.410;2022-10-31T09:27:56;18.80;99.90
19256;DHT22;9762;52.490;13.410;2022-10-31T09:30:22;18.80;99.90
19256;DHT22;9762;52.490;13.410;2022-10-31T09:32:48;18.90;99.90
19256;DHT22;9762;52.490;13.410;2022-10-31T09:35:13;18.90;99.90
19256;DHT22;9762;52.490;13.410;2022-10-31T09:37:39;18.90;99.90
19256;DHT22;9762;52.490;13.410;2022-10-31T09:40:04;18.90;99.90
19256;DHT22;9762;52.490;13.410;2022-10-31T09:45:21;19.00;99.90
19256;DHT22;9762;52.490;13.410;2022-10-31T09:47:53;19.00;99.90
19256;DHT22;9762;52.490;13.410;2022-10-31T09:53:26;19.10;99.90
19256;DHT22;9762;52.490;13.410;2022-10-31T09:55:51;19.10;99.90
19256;DHT22;9762;52.490;13.410;2022-10-31T09:58:20;19.10;99.90
19256;DHT22;9762;52.490;13.410;2022-10-31T10:00:48;19.10;99.90
19256;DHT22;9762;52.490;13.410;2022-10-31T10:05:46;19.20;99.90
19256;DHT22;9762;52.490;13.410;2022-10-31T10:08:20;19.20;99.90
19256;DHT22;9762;52.490;13.410;2022-10-31T10:22:36;19.40;99.90
19256;DHT22;9762;52.490;13.410;2022-10-31T10:30:22;19.50;99.80
19256;DHT22;9762;52.490;13.410;2022-10-31T10:32:58;19.50;99.80
19256;DHT22;9762;52.490;13.410;2022-10-31T10:35:40;19.60;99.80
19256;DHT22;9762;52.490;13.410;2022-10-31T10:38:27;19.70;99.80
19256;DHT22;9762;52.490;13.410;2022-10-31T10:40:54;19.70;99.70
19256;DHT22;9762;52.490;13.410;2022-10-31T10:43:29;19.80;99.60
19256;DHT22;9762;52.490;13.410;2022-10-31T10:48:46;20.00;99.50
19256;DHT22;9762;52.490;13.410;2022-10-31T10:51:20;20.10;99.50
19256;DHT22;9762;52.490;13.410;2022-10-31T10:54:04;20.10;99.60
19256;DHT22;9762;52.490;13.410;2022-10-31T10:57:00;20.20;99.10
19256;DHT22;9762;52.490;13.410;2022-10-31T10:59:27;20.30;99.00
19256;DHT22;9762;52.490;13.410;2022-10-31T11:01:53;20.40;98.80
19256;DHT22;9762;52.490;13.410;2022-10-31T11:04:35;20.40;98.60
19256;DHT22;9762;52.490;13.410;2022-10-31T11:07:03;20.50;98.70
19256;DHT22;9762;52.490;13.410;2022-10-31T11:09:29;20.60;98.50
19256;DHT22;9762;52.490;13.410;2022-10-31T11:11:55;20.70;98.40
19256;DHT22;9762;52.490;13.410;2022-10-31T11:14:22;20.90;98.10
19256;DHT22;9762;52.490;13.410;2022-10-31T11:17:17;20.90;98.10
19256;DHT22;9762;52.490;13.410;2022-10-31T11:19:44;21.00;97.70
19256;DHT22;9762;52.490;13.410;2022-10-31T11:22:17;21.10;97.70
19256;DHT22;9762;52.490;13.410;2022-10-31T11:24:43;21.10;97.40
19256;DHT22;9762;52.490;13.410;2022-10-31T11:27:20;21.20;97.00
19256;DHT22;9762;52.490;13.410;2022-10-31T11:29:46;21.20;97.10
19256;DHT22;9762;52.490;13.410;2022-10-31T11:32:23;21.20;97.00
19256;DHT22;9762;52.490;13.410;2022-10-31T11:34:59;21.30;97.10
19256;DHT22;9762;52.490;13.410;2022-10-31T11:37:27;21.30;97.00
19256;DHT22;9762;52.490;13.410;2022-10-31T11:39:59;21.40;97.00
19256;DHT22;9762;52.490;13.410;2022-10-31T11:42:28;21.40;96.80
19256;DHT22;9762;52.490;13.410;2022-10-31T11:44:55;21.50;96.90
19256;DHT22;9762;52.490;13.410;2022-10-31T11:47:29;21.60;96.90
19256;DHT22;9762;52.490;13.410;2022-10-31T11:50:00;21.70;96.30
19256;DHT22;9762;52.490;13.410;2022-10-31T11:52:29;21.70;96.10
19256;DHT22;9762;52.490;13.410;2022-10-31T11:55:15;21.70;96.10
19256;DHT22;9762;52.490;13.410;2022-10-31T11:57:46;21.80;96.10
19256;DHT22;9762;52.490;13.410;2022-10-31T12:00:27;21.80;95.80
19256;DHT22;9762;52.490;13.410;2022-10-31T12:03:15;21.80;95.80
19256;DHT22;9762;52.490;13.410;2022-10-31T12:05:44;21.90;95.90
19256;DHT22;9762;52.490;13.410;2022-10-31T12:08:13;22.00;95.90
19256;DHT22;9762;52.490;13.410;2022-10-31T12:11:05;22.00;95.80
19256;DHT22;9762;52.490;13.410;2022-10-31T12:16:39;22.20;95.70
19256;DHT22;9762;52.490;13.410;2022-10-31T12:22:05;22.40;95.10
19256;DHT22;9762;52.490;13.410;2022-10-31T12:24:45;22.40;95.10
19256;DHT22;9762;52.490;13.410;2022-10-31T12:30:13;22.50;94.90
19256;DHT22;9762;52.490;13.410;2022-10-31T12:40:51;22.60;94.80
19256;DHT22;9762;52.490;13.410;2022-10-31T12:43:34;22.60;94.50
19256;DHT22;9762;52.490;13.410;2022-10-31T12:46:02;22.60;94.50
19256;DHT22;9762;52.490;13.410;2022-10-31T12:56:53;22.70;94.00
19256;DHT22;9762;52.490;13.410;2022-10-31T12:59:31;22.70;94.10
19256;DHT22;9762;52.490;13.410;2022-10-31T13:07:07;22.90;94.00
19256;DHT22;9762;52.490;13.410;2022-10-31T13:09:41;22.90;93.90
19256;DHT22;9762;52.490;13.410;2022-10-31T13:12:14;22.90;93.90
19256;DHT22;9762;52.490;13.410;2022-10-31T13:14:47;22.90;94.00
19256;DHT22;9762;52.490;13.410;2022-10-31T13:17:38;22.90;93.70
19256;DHT22;9762;52.490;13.410;2022-10-31T13:20:24;22.90;93.70
19256;DHT22;9762;52.490;13.410;2022-10-31T13:23:00;22.80;93.50
19256;DHT22;9762;52.490;13.410;2022-10-31T13:25:31;22.80;93.50
19256;DHT22;9762;52.490;13.410;2022-10-31T13:28:01;22.90;93.30
19256;DHT22;9762;52.490;13.410;2022-10-31T13:30:31;22.90;93.40
19256;DHT22;9762;52.490;13.410;2022-10-31T13:33:06;22.90;93.50
19256;DHT22;9762;52.490;13.410;2022-10-31T13:35:43;22.80;93.50
19256;DHT22;9762;52.490;13.410;2022-10-31T13:38:34;22.80;93.60
19256;DHT22;9762;52.490;13.410;2022-10-31T13:41:17;22.80;93.60
19256;DHT22;9762;52.490;13.410;2022-10-31T13:46:41;22.80;93.70
19256;DHT22;9762;52.490;13.410;2022-10-31T13:51:51;22.80;93.50
19256;DHT22;9762;52.490;13.410;2022-10-31T13:54:30;22.80;93.40
19256;DHT22;9762;52.490;13.410;2022-10-31T13:56:56;22.70;93.40
19256;DHT22;9762;52.490;13.410;2022-10-31T13:59:24;22.70;93.60
19256;DHT22;9762;52.490;13.410;2022-10-31T14:01:54;22.70;93.60
19256;DHT22;9762;52.490;13.410;2022-10-31T14:04:23;22.60;93.60
19256;DHT22;9762;52.490;13.410;2022-10-31T14:09:28;22.60;93.70
19256;DHT22;9762;52.490;13.410;2022-10-31T14:11:56;22.60;93.60
19256;DHT22;9762;52.490;13.410;2022-10-31T14:14:29;22.60;93.60
19256;DHT22;9762;52.490;13.410;2022-10-31T14:16:57;22.60;93.60
19256;DHT22;9762;52.490;13.410;2022-10-31T14:19:23;22.60;93.60
19256;DHT22;9762;52.490;13.410;2022-10-31T14:21:50;22.60;93.50
19256;DHT22;9762;52.490;13.410;2022-10-31T14:24:32;22.60;93.50
19256;DHT22;9762;52.490;13.410;2022-10-31T14:26:59;22.50;93.60
19256;DHT22;9762;52.490;13.410;2022-10-31T14:29:30;22.50;93.70
19256;DHT22;9762;52.490;13.410;2022-10-31T14:32:21;22.50;93.80
19256;DHT22;9762;52.490;13.410;2022-10-31T14:34:53;22.40;93.80
19256;DHT22;9762;52.490;13.410;2022-10-31T14:37:49;22.40;94.00
19256;DHT22;9762;52.490;13.410;2022-10-31T14:40:49;22.40;94.10
19256;DHT22;9762;52.490;13.410;2022-10-31T14:48:48;22.20;94.60
19256;DHT22;9762;52.490;13.410;2022-10-31T14:51:23;22.10;94.80
19256;DHT22;9762;52.490;13.410;2022-10-31T14:53:52;22.00;94.90
19256;DHT22;9762;52.490;13.410;2022-10-31T14:56:33;22.00;95.00
19256;DHT22;9762;52.490;13.410;2022-10-31T14:59:02;21.90;95.10
19256;DHT22;9762;52.490;13.410;2022-10-31T15:01:32;21.90;95.20
19256;DHT22;9762;52.490;13.410;2022-10-31T15:04:18;21.70;95.40
19256;DHT22;9762;52.490;13.410;2022-10-31T15:06:48;21.70;95.50
19256;DHT22;9762;52.490;13.410;2022-10-31T15:09:25;21.60;95.60
19256;DHT22;9762;52.490;13.410;2022-10-31T15:11:51;21.50;95.80
19256;DHT22;9762;52.490;13.410;2022-10-31T15:14:26;21.40;95.90
19256;DHT22;9762;52.490;13.410;2022-10-31T15:16:52;21.30;96.00
19256;DHT22;9762;52.490;13.410;2022-10-31T15:19:23;21.30;96.10
19256;DHT22;9762;52.490;13.410;2022-10-31T15:21:51;21.20;96.20
19256;DHT22;9762;52.490;13.410;2022-10-31T15:24:18;21.20;96.30
19256;DHT22;9762;52.490;13.410;2022-10-31T15:26:52;21.20;96.40
19256;DHT22;9762;52.490;13.410;2022-10-31T15:29:23;21.00;96.50
19256;DHT22;9762;52.490;13.410;2022-10-31T15:31:52;20.90;96.70
19256;DHT22;9762;52.490;13.410;2022-10-31T15:34:39;20.90;96.80
19256;DHT22;9762;52.490;13.410;2022-10-31T15:37:16;20.80;97.00
19256;DHT22;9762;52.490;13.410;2022-10-31T15:39:43;20.70;97.10
19256;DHT22;9762;52.490;13.410;2022-10-31T15:45:00;20.50;97.30
19256;DHT22;9762;52.490;13.410;2022-10-31T15:47:29;20.50;97.50
19256;DHT22;9762;52.490;13.410;2022-10-31T15:49:56;20.40;98.00
19256;DHT22;9762;52.490;13.410;2022-10-31T15:52:38;20.30;97.80
19256;DHT22;9762;52.490;13.410;2022-10-31T15:57:40;20.10;98.30
19256;DHT22;9762;52.490;13.410;2022-10-31T16:02:46;20.00;98.60
19256;DHT22;9762;52.490;13.410;2022-10-31T16:05:17;20.00;98.60
19256;DHT22;9762;52.490;13.410;2022-10-31T16:07:51;19.90;98.90
19256;DHT22;9762;52.490;13.410;2022-10-31T16:10:26;19.90;98.90
19256;DHT22;9762;52.490;13.410;2022-10-31T16:12:52;19.90;98.80
19256;DHT22;9762;52.490;13.410;2022-10-31T16:15:19;19.90;98.80
19256;DHT22;9762;52.490;13.410;2022-10-31T16:17:47;19.90;98.90
19256;DHT22;9762;52.490;13.410;2022-10-31T16:20:26;19.80;98.90
19256;DHT22;9762;52.490;13.410;2022-10-31T16:22:54;19.80;99.00
19256;DHT22;9762;52.490;13.410;2022-10-31T16:25:29;19.70;99.10
19256;DHT22;9762;52.490;13.410;2022-10-31T16:28:04;19.60;99.30
19256;DHT22;9762;52.490;13.410;2022-10-31T16:30:40;19.50;99.40
19256;DHT22;9762;52.490;13.410;2022-10-31T16:33:30;19.60;99.40
19256;DHT22;9762;52.490;13.410;2022-10-31T16:35:59;19.50;99.40
19256;DHT22;9762;52.490;13.410;2022-10-31T16:38:26;19.50;99.60
19256;DHT22;9762;52.490;13.410;2022-10-31T16:40:52;19.40;99.80
19256;DHT22;9762;52.490;13.410;2022-10-31T16:43:18;19.40;99.90
19256;DHT22;9762;52.490;13.410;2022-10-31T16:45:46;19.20;99.90
19256;DHT22;9762;52.490;13.410;2022-10-31T16:48:17;19.20;99.90
19256;DHT22;9762;52.490;13.410;2022-10-31T16:50:44;19.20;99.90
19256;DHT22;9762;52.490;13.410;2022-10-31T16:53:12;19.10;99.90
19256;DHT22;9762;52.490;13.410;2022-10-31T16:55:57;19.10;99.90
19256;DHT22;9762;52.490;13.410;2022-10-31T16:58:34;19.10;99.90
19256;DHT22;9762;52.490;13.410;2022-10-31T17:01:01;19.10;99.90
19256;DHT22;9762;52.490;13.410;2022-10-31T17:03:27;19.00;99.90
19256;DHT22;9762;52.490;13.410;2022-10-31T17:05:53;19.00;99.90
19256;DHT22;9762;52.490;13.410;2022-10-31T17:08:20;19.00;99.90
19256;DHT22;9762;52.490;13.410;2022-10-31T17:10:47;19.00;99.90
19256;DHT22;9762;52.490;13.410;2022-10-31T17:13:21;18.90;99.90
19256;DHT22;9762;52.490;13.410;2022-10-31T17:15:50;18.90;99.90
19256;DHT22;9762;52.490;13.410;2022-10-31T17:18:16;18.90;99.90
19256;DHT22;9762;52.490;13.410;2022-10-31T17:20:43;18.80;99.90
19256;DHT22;9762;52.490;13.410;2022-10-31T17:23:10;18.80;99.90
19256;DHT22;9762;52.490;13.410;2022-10-31T17:25:36;18.80;99.90
19256;DHT22;9762;52.490;13.410;2022-10-31T17:28:02;18.80;99.90
19256;DHT22;9762;52.490;13.410;2022-10-31T17:30:29;18.70;99.90
19256;DHT22;9762;52.490;13.410;2022-10-31T17:32:55;18.70;99.90